Time;durP1;ratioP1;P1;durP2;ratioP2;P2;SDS_P1;SDS_P2;PMS_P1;PMS_P2;Temp;Humidity;BMP_temperature;BMP_pressure;BME280_temperature;BME280_humidity;BME280_pressure;Samples;Min_cycle;Max_cycle;Signal;HPM_P1;HPM_P2
2023/05/05 00:02:28;;;;;;;9.52;7.28;;;13.80;99.90;;;;;;6203774;28;20050;-79
2023/05/05 00:05:30;;;;;;;12.55;8.45;;;13.90;99.90;;;;;;6199893;28;20061;-80
2023/05/05 00:08:32;;;;;;;10.90;9.73;;;14.00;99.90;;;;;;6200116;28;20509;-80
2023/05/05 00:11:35;;;;;;;8.45;7.75;;;14.10;99.90;;;;;;6200234;28;20050;-80
2023/05/05 00:14:36;;;;;;;14.70;9.00;;;14.30;99.90;;;;;;6211882;28;20046;-80
2023/05/05 00:17:38;;;;;;;8.23;7.43;;;14.30;99.90;;;;;;6224188;28;20060;-80
2023/05/05 00:20:40;;;;;;;7.93;7.13;;;14.40;99.90;;;;;;6224499;28;20068;-80
2023/05/05 00:23:42;;;;;;;8.73;7.93;;;14.40;99.90;;;;;;6224238;28;20049;-80
2023/05/05 00:26:44;;;;;;;8.77;7.15;;;14.40;99.90;;;;;;6211322;28;20046;-80
2023/05/05 00:29:46;;;;;;;8.25;7.30;;;14.30;99.90;;;;;;6201420;28;20046;-80
2023/05/05 00:32:48;;;;;;;10.00;7.47;;;14.30;99.90;;;;;;6201598;28;20046;-80
2023/05/05 00:35:50;;;;;;;9.23;8.32;;;14.20;99.90;;;;;;6202552;28;20061;-80
2023/05/05 00:38:52;;;;;;;7.63;6.90;;;14.20;99.90;;;;;;6202783;28;20261;-80
2023/05/05 00:41:55;;;;;;;11.25;7.88;;;14.10;99.90;;;;;;6200777;28;20077;-80
2023/05/05 00:44:57;;;;;;;9.13;8.23;;;13.90;99.90;;;;;;6201017;28;20050;-79
2023/05/05 00:48:00;;;;;;;12.43;8.13;;;13.90;99.90;;;;;;6200349;28;20050;-80
2023/05/05 00:51:01;;;;;;;10.55;9.13;;;13.80;99.90;;;;;;6200810;28;20053;-79
2023/05/05 00:54:05;;;;;;;11.07;9.27;;;13.70;99.90;;;;;;6199694;28;20046;-78
2023/05/05 00:57:08;;;;;;;23.40;10.68;;;13.70;99.90;;;;;;6220641;28;20050;-81
2023/05/05 01:00:11;;;;;;;9.43;7.15;;;13.70;99.90;;;;;;6224078;28;20149;-77
2023/05/05 01:03:14;;;;;;;8.90;7.75;;;13.70;99.90;;;;;;6223967;28;20052;-81
2023/05/05 01:06:32;;;;;;;13.45;8.88;;;13.70;99.90;;;;;;6224436;28;20052;-80
2023/05/05 01:09:43;;;;;;;12.68;8.27;;;13.60;99.90;;;;;;6224632;28;20046;-80
2023/05/05 01:12:53;;;;;;;8.73;8.02;;;13.50;99.90;;;;;;6223492;28;20049;-81
2023/05/05 01:16:00;;;;;;;8.43;7.50;;;13.50;99.90;;;;;;6224385;28;20054;-80
2023/05/05 01:19:14;;;;;;;10.23;7.53;;;13.50;99.90;;;;;;6224754;28;20045;-78
2023/05/05 01:22:21;;;;;;;8.00;7.30;;;13.60;99.90;;;;;;6224298;28;20049;-80
2023/05/05 01:25:49;;;;;;;8.40;7.57;;;13.60;99.90;;;;;;6223897;28;20088;-80
2023/05/05 01:29:05;;;;;;;9.20;8.30;;;13.70;99.90;;;;;;6224525;28;20050;-81
2023/05/05 01:32:11;;;;;;;15.48;7.75;;;13.80;99.90;;;;;;6226927;28;20116;-79
2023/05/05 01:35:18;;;;;;;8.52;7.63;;;13.90;99.90;;;;;;6222491;28;20073;-79
2023/05/05 01:38:23;;;;;;;8.67;7.83;;;14.00;99.90;;;;;;6223137;28;20519;-79
2023/05/05 01:41:30;;;;;;;8.40;7.68;;;14.20;99.90;;;;;;6223420;28;20049;-79
2023/05/05 01:44:34;;;;;;;8.63;7.93;;;14.30;99.90;;;;;;6227096;28;20049;-79
2023/05/05 01:47:39;;;;;;;9.00;6.43;;;14.60;99.90;;;;;;6229564;28;20045;-79
2023/05/05 01:50:42;;;;;;;12.70;7.22;;;14.70;99.90;;;;;;6227126;28;20045;-80
2023/05/05 01:53:45;;;;;;;10.48;7.55;;;14.80;99.90;;;;;;6225602;28;20496;-79
2023/05/05 01:56:49;;;;;;;7.85;7.13;;;14.90;99.90;;;;;;6227370;28;20053;-79
2023/05/05 01:59:52;;;;;;;7.10;6.22;;;14.90;99.90;;;;;;6225823;28;20050;-79
2023/05/05 02:02:58;;;;;;;9.73;5.88;;;14.90;99.90;;;;;;6224662;28;20049;-79
2023/05/05 02:06:01;;;;;;;7.78;6.47;;;14.90;99.90;;;;;;6227097;28;20393;-80
2023/05/05 02:09:03;;;;;;;8.60;7.25;;;15.00;99.90;;;;;;6228842;28;20670;-79
2023/05/05 02:12:07;;;;;;;7.72;6.93;;;15.00;99.90;;;;;;6224667;28;20053;-80
2023/05/05 02:15:11;;;;;;;8.55;7.60;;;14.90;99.90;;;;;;6223355;28;20045;-79
2023/05/05 02:18:14;;;;;;;7.18;6.55;;;14.90;99.90;;;;;;6219426;28;20042;-80
2023/05/05 02:21:17;;;;;;;10.05;7.10;;;14.90;99.90;;;;;;6204095;28;20501;-79
2023/05/05 02:24:19;;;;;;;9.38;5.80;;;14.90;99.90;;;;;;6203765;28;20481;-79
2023/05/05 02:27:24;;;;;;;8.32;7.53;;;14.90;99.90;;;;;;6202959;28;20058;-79
2023/05/05 02:30:28;;;;;;;7.47;6.63;;;15.00;99.90;;;;;;6202840;28;20046;-80
2023/05/05 02:33:34;;;;;;;7.45;6.72;;;15.00;99.90;;;;;;6202401;28;20053;-80
2023/05/05 02:36:39;;;;;;;10.50;6.45;;;15.00;99.90;;;;;;6202467;28;20042;-79
2023/05/05 02:39:45;;;;;;;10.23;6.85;;;15.00;99.90;;;;;;6202905;28;20046;-80
2023/05/05 02:42:49;;;;;;;7.63;6.57;;;14.90;99.90;;;;;;6203101;28;20050;-80
2023/05/05 02:45:50;;;;;;;7.43;6.68;;;14.80;99.90;;;;;;6202041;28;20042;-79
2023/05/05 02:48:54;;;;;;;7.38;6.60;;;14.80;99.90;;;;;;6201393;28;20500;-79
2023/05/05 02:51:56;;;;;;;8.00;7.28;;;14.70;99.90;;;;;;6202794;28;20054;-79
2023/05/05 02:54:59;;;;;;;7.85;7.13;;;14.70;99.90;;;;;;6201773;28;20070;-80
2023/05/05 02:58:05;;;;;;;13.60;7.30;;;14.70;99.90;;;;;;6201712;28;20047;-79
2023/05/05 03:01:15;;;;;;;13.25;7.40;;;14.70;99.90;;;;;;6202950;28;20050;-80
2023/05/05 03:04:25;;;;;;;8.43;7.05;;;14.80;99.90;;;;;;6201990;28;20050;-80
2023/05/05 03:07:31;;;;;;;10.00;6.78;;;14.70;99.90;;;;;;6202957;28;20157;-80
2023/05/05 03:10:40;;;;;;;8.77;7.25;;;14.70;99.90;;;;;;6201866;28;20057;-79
2023/05/05 03:13:43;;;;;;;7.78;6.90;;;14.70;99.90;;;;;;6197652;28;20050;-78
2023/05/05 03:16:47;;;;;;;7.20;6.50;;;14.60;99.90;;;;;;6196841;28;20042;-78
2023/05/05 03:19:50;;;;;;;7.60;6.85;;;14.60;99.90;;;;;;6197489;28;20417;-79
2023/05/05 03:22:53;;;;;;;31.83;8.75;;;14.60;99.90;;;;;;6197272;28;20046;-78
2023/05/05 03:25:55;;;;;;;7.53;6.85;;;14.60;99.90;;;;;;6196729;28;20097;-78
2023/05/05 03:28:57;;;;;;;12.38;8.57;;;14.50;99.90;;;;;;6196949;28;20053;-78
2023/05/05 03:31:59;;;;;;;6.97;5.80;;;14.50;99.90;;;;;;6197721;28;20073;-78
2023/05/05 03:35:02;;;;;;;8.13;7.35;;;14.50;99.90;;;;;;6196277;28;20397;-78
2023/05/05 03:38:04;;;;;;;7.00;5.72;;;14.50;99.90;;;;;;6196559;28;20046;-78
2023/05/05 03:41:06;;;;;;;7.45;6.68;;;14.50;99.90;;;;;;6196768;28;20053;-79
2023/05/05 03:44:07;;;;;;;8.13;7.38;;;14.50;99.90;;;;;;6196764;28;20061;-78
2023/05/05 03:47:09;;;;;;;13.07;7.20;;;14.60;99.90;;;;;;6197040;28;20054;-79
2023/05/05 03:50:12;;;;;;;8.32;6.50;;;14.60;99.90;;;;;;6196107;28;20276;-78
2023/05/05 03:53:14;;;;;;;8.40;6.18;;;14.70;99.90;;;;;;6196198;28;20049;-79
2023/05/05 03:56:15;;;;;;;6.35;5.70;;;14.90;99.90;;;;;;6195945;28;20061;-79
2023/05/05 03:59:17;;;;;;;8.85;6.30;;;15.00;99.90;;;;;;6196658;28;20053;-78
2023/05/05 04:02:19;;;;;;;6.15;5.68;;;15.20;99.90;;;;;;6196498;28;20050;-78
2023/05/05 04:05:22;;;;;;;7.03;6.43;;;15.20;99.90;;;;;;6195914;28;20050;-78
2023/05/05 04:08:23;;;;;;;8.93;7.90;;;15.20;99.90;;;;;;6197200;28;20050;-78
2023/05/05 04:11:26;;;;;;;9.27;6.20;;;15.30;99.90;;;;;;6196773;28;20046;-79
2023/05/05 04:14:27;;;;;;;6.22;5.22;;;15.30;99.90;;;;;;6217798;28;20050;-78
2023/05/05 04:17:29;;;;;;;13.02;5.85;;;15.30;99.90;;;;;;6220529;28;20068;-78
2023/05/05 04:20:34;;;;;;;5.60;4.93;;;15.40;99.90;;;;;;6219755;28;20045;-79
2023/05/05 04:23:36;;;;;;;7.75;5.75;;;15.40;99.90;;;;;;6198273;28;20050;-79
2023/05/05 04:26:38;;;;;;;5.25;4.78;;;15.60;99.90;;;;;;6196018;28;20065;-78
2023/05/05 04:29:40;;;;;;;8.45;4.75;;;15.70;99.90;;;;;;6195988;28;20054;-78
2023/05/05 04:32:41;;;;;;;5.82;5.20;;;15.80;99.90;;;;;;6195034;28;20508;-79
2023/05/05 04:35:44;;;;;;;7.03;4.93;;;15.90;99.90;;;;;;6196456;28;20050;-79
2023/05/05 04:38:46;;;;;;;8.23;3.75;;;16.10;99.90;;;;;;6196116;28;20125;-78
2023/05/05 04:41:48;;;;;;;5.75;4.95;;;16.20;99.90;;;;;;6195606;28;20050;-79
2023/05/05 04:44:50;;;;;;;5.03;4.60;;;16.30;99.90;;;;;;6195425;28;20054;-78
2023/05/05 04:47:51;;;;;;;6.40;5.05;;;16.30;99.90;;;;;;6195869;28;20077;-79
2023/05/05 04:50:54;;;;;;;5.63;4.60;;;16.40;99.90;;;;;;6240401;23;20136;-78
2023/05/05 04:53:56;;;;;;;7.45;5.40;;;16.40;99.90;;;;;;6222473;28;20058;-79
2023/05/05 04:56:58;;;;;;;7.03;4.75;;;16.40;99.90;;;;;;6225542;28;20068;-79
2023/05/05 05:00:00;;;;;;;4.93;4.53;;;16.50;99.90;;;;;;6223109;28;20042;-78
2023/05/05 05:03:02;;;;;;;10.02;6.35;;;16.50;99.90;;;;;;6222207;28;20052;-78
2023/05/05 05:06:05;;;;;;;10.70;5.15;;;16.60;99.90;;;;;;6221951;28;20070;-79
2023/05/05 05:09:07;;;;;;;4.68;3.80;;;16.70;99.90;;;;;;6221067;28;20530;-79
2023/05/05 05:12:08;;;;;;;6.32;3.97;;;16.90;99.90;;;;;;6221344;28;20054;-79
2023/05/05 05:15:12;;;;;;;6.20;4.95;;;17.20;99.90;;;;;;6221500;28;20061;-79
2023/05/05 05:18:14;;;;;;;5.85;3.83;;;17.40;99.90;;;;;;6222616;28;20037;-79
2023/05/05 05:21:17;;;;;;;5.55;5.00;;;17.70;99.90;;;;;;6225955;28;20149;-79
2023/05/05 05:24:19;;;;;;;5.97;3.63;;;17.90;99.90;;;;;;6227098;28;20081;-79
2023/05/05 05:27:20;;;;;;;6.35;3.85;;;18.00;99.90;;;;;;6226887;28;20045;-79
2023/05/05 05:30:22;;;;;;;5.63;4.00;;;18.10;99.90;;;;;;6227983;28;20052;-80
2023/05/05 05:33:24;;;;;;;3.85;3.40;;;18.20;99.90;;;;;;6228086;28;20050;-80
2023/05/05 05:36:27;;;;;;;4.97;3.30;;;18.30;99.90;;;;;;6227837;28;20049;-79
2023/05/05 05:39:29;;;;;;;5.13;3.22;;;18.40;99.90;;;;;;6228160;28;20050;-80
2023/05/05 05:42:31;;;;;;;8.27;3.33;;;18.40;99.90;;;;;;6227547;28;20061;-80
2023/05/05 05:45:32;;;;;;;6.18;3.35;;;18.50;99.90;;;;;;6227382;28;20504;-79
2023/05/05 05:48:34;;;;;;;6.18;3.60;;;18.50;99.90;;;;;;6224682;28;20415;-79
2023/05/05 05:51:37;;;;;;;4.63;4.22;;;18.50;99.90;;;;;;6226147;28;20054;-79
2023/05/05 05:54:39;;;;;;;7.97;4.03;;;18.60;99.90;;;;;;6225302;28;20050;-80
2023/05/05 05:57:40;;;;;;;8.55;6.13;;;18.50;99.90;;;;;;6225421;28;20424;-79
2023/05/05 06:00:42;;;;;;;5.18;3.47;;;18.50;99.90;;;;;;6225693;28;20754;-80
2023/05/05 06:03:44;;;;;;;3.92;3.10;;;18.60;99.90;;;;;;6226765;28;20050;-80
2023/05/05 06:06:47;;;;;;;6.80;3.28;;;18.80;99.90;;;;;;6225876;28;20054;-81
2023/05/05 06:09:49;;;;;;;4.50;3.65;;;18.90;99.90;;;;;;6225447;28;20053;-81
2023/05/05 06:12:50;;;;;;;3.25;2.95;;;18.90;99.90;;;;;;6225346;28;20638;-80
2023/05/05 06:15:52;;;;;;;7.13;3.35;;;19.30;99.90;;;;;;6225045;28;20061;-80
2023/05/05 06:18:54;;;;;;;3.33;3.03;;;19.70;99.90;;;;;;6224962;28;20042;-80
2023/05/05 06:21:57;;;;;;;4.97;3.10;;;20.00;99.90;;;;;;6218442;28;20051;-80
2023/05/05 06:24:58;;;;;;;7.25;3.63;;;20.40;99.90;;;;;;6201591;28;20042;-80
2023/05/05 06:28:00;;;;;;;10.68;2.78;;;20.40;99.90;;;;;;6201382;28;20054;-80
2023/05/05 06:31:02;;;;;;;8.48;3.45;;;20.50;99.90;;;;;;6201302;28;20085;-80
2023/05/05 06:34:04;;;;;;;5.07;3.22;;;20.50;99.80;;;;;;6200168;28;20050;-80
2023/05/05 06:37:07;;;;;;;3.97;3.10;;;20.40;99.50;;;;;;6200932;28;20046;-80
2023/05/05 06:40:10;;;;;;;7.55;3.20;;;20.50;99.20;;;;;;6201018;28;20051;-80
2023/05/05 06:43:11;;;;;;;13.93;3.83;;;20.50;99.20;;;;;;6200041;28;20050;-80
2023/05/05 06:46:13;;;;;;;7.68;3.35;;;20.60;99.00;;;;;;6200522;28;20420;-80
2023/05/05 06:49:15;;;;;;;6.95;2.90;;;20.60;98.60;;;;;;6200200;28;20046;-80
2023/05/05 06:52:18;;;;;;;6.97;3.50;;;20.70;98.60;;;;;;6200351;28;20137;-80
2023/05/05 06:55:20;;;;;;;3.97;2.92;;;20.80;98.30;;;;;;6200199;28;20061;-79
2023/05/05 06:58:21;;;;;;;4.40;3.35;;;20.90;98.10;;;;;;6199248;28;20053;-80
2023/05/05 07:01:23;;;;;;;5.05;3.45;;;21.10;97.80;;;;;;6199956;28;20057;-80
2023/05/05 07:04:25;;;;;;;7.30;3.53;;;21.30;97.60;;;;;;6199450;28;20054;-79
2023/05/05 07:07:28;;;;;;;6.82;3.22;;;21.70;97.40;;;;;;6200537;28;20448;-79
2023/05/05 07:10:30;;;;;;;7.72;3.60;;;21.80;96.60;;;;;;6199389;28;20424;-80
2023/05/05 07:13:32;;;;;;;5.90;3.55;;;21.90;96.50;;;;;;6199906;28;20057;-80
2023/05/05 07:16:35;;;;;;;4.78;2.90;;;21.90;96.10;;;;;;6199540;28;20054;-81
2023/05/05 07:19:37;;;;;;;8.38;3.40;;;21.70;95.90;;;;;;6200657;28;20489;-80
2023/05/05 07:22:40;;;;;;;3.30;3.05;;;21.60;95.90;;;;;;6164951;28;20397;-79
2023/05/05 07:25:42;;;;;;;4.72;3.47;;;21.50;95.90;;;;;;6221745;28;20053;-80
2023/05/05 07:28:45;;;;;;;3.78;3.17;;;21.50;96.00;;;;;;6221908;28;20046;-81
2023/05/05 07:31:46;;;;;;;3.85;2.72;;;21.70;95.80;;;;;;6216107;28;20113;-80
2023/05/05 07:34:48;;;;;;;2.97;2.42;;;21.70;95.50;;;;;;6223517;28;20409;-82
2023/05/05 07:37:51;;;;;;;5.82;2.83;;;21.70;95.30;;;;;;6224249;28;20049;-80
2023/05/05 07:40:53;;;;;;;3.03;2.78;;;21.80;94.90;;;;;;6223437;28;20042;-80
2023/05/05 07:43:54;;;;;;;4.68;2.70;;;22.00;94.80;;;;;;6225529;28;20069;-82
2023/05/05 07:46:56;;;;;;;2.15;1.95;;;22.40;94.20;;;;;;6224348;28;20057;-80
2023/05/05 07:49:58;;;;;;;12.38;4.05;;;22.60;93.80;;;;;;6223734;28;20042;-80
2023/05/05 07:53:01;;;;;;;2.47;2.28;;;23.20;93.30;;;;;;6223065;28;20045;-80
2023/05/05 07:56:03;;;;;;;6.00;2.35;;;23.70;92.40;;;;;;6201257;28;20046;-79
2023/05/05 07:59:05;;;;;;;4.65;2.45;;;24.20;91.80;;;;;;6201027;28;20046;-78
2023/05/05 08:02:07;;;;;;;2.80;2.55;;;24.30;90.50;;;;;;6201399;28;20156;-80
2023/05/05 08:05:11;;;;;;;3.28;1.92;;;24.50;90.10;;;;;;6202119;28;20420;-80
2023/05/05 08:08:14;;;;;;;3.22;2.40;;;24.80;88.90;;;;;;6202608;28;20545;-79
2023/05/05 08:11:16;;;;;;;2.38;2.17;;;25.30;87.20;;;;;;6201768;28;20412;-79
2023/05/05 08:14:17;;;;;;;3.30;2.53;;;25.60;85.70;;;;;;6201300;28;20133;-80
2023/05/05 08:17:19;;;;;;;3.38;2.90;;;25.70;84.50;;;;;;6199045;28;20065;-79
2023/05/05 08:20:21;;;;;;;3.58;1.95;;;25.70;84.00;;;;;;6201421;28;20065;-78
2023/05/05 08:23:24;;;;;;;5.82;2.60;;;25.50;82.10;;;;;;6200688;28;20061;-79
2023/05/05 08:26:26;;;;;;;4.03;2.40;;;25.30;82.80;;;;;;6205075;28;20555;-79
2023/05/05 08:29:28;;;;;;;3.78;2.53;;;25.60;81.80;;;;;;6201924;28;20060;-79
2023/05/05 08:32:30;;;;;;;2.42;2.08;;;26.30;81.10;;;;;;6203880;28;20045;-79
2023/05/05 08:35:31;;;;;;;2.10;1.90;;;27.00;78.00;;;;;;6201199;28;20532;-79
2023/05/05 08:38:35;;;;;;;2.45;2.22;;;26.90;75.30;;;;;;6179863;28;20046;-78
2023/05/05 08:41:36;;;;;;;3.60;2.13;;;26.30;75.10;;;;;;6182635;28;20516;-78
2023/05/05 08:44:38;;;;;;;6.05;2.45;;;26.20;75.70;;;;;;6183017;28;20408;-79
2023/05/05 08:47:41;;;;;;;3.08;1.63;;;26.10;75.10;;;;;;6204963;28;20522;-79
2023/05/05 08:50:48;;;;;;;3.08;2.70;;;26.00;75.00;;;;;;6205743;28;20496;-79
2023/05/05 08:53:57;;;;;;;2.22;2.03;;;25.80;74.50;;;;;;6206416;28;20049;-80
2023/05/05 08:57:01;;;;;;;7.72;2.08;;;25.50;75.00;;;;;;6207250;28;20085;-79
2023/05/05 09:00:04;;;;;;;3.47;2.50;;;25.30;75.40;;;;;;6206099;28;20057;-80
2023/05/05 09:03:07;;;;;;;2.40;2.13;;;25.20;75.80;;;;;;6210660;28;20052;-79
2023/05/05 09:06:09;;;;;;;6.18;2.30;;;24.90;75.80;;;;;;6210545;28;20058;-79
2023/05/05 09:09:14;;;;;;;4.32;3.75;;;24.40;76.40;;;;;;6210525;28;20152;-78
2023/05/05 09:12:17;;;;;;;2.80;2.40;;;23.90;77.70;;;;;;6206766;28;20057;-80
2023/05/05 09:15:19;;;;;;;3.08;2.53;;;23.60;78.90;;;;;;6209654;28;20531;-79
2023/05/05 09:18:20;;;;;;;4.82;4.07;;;23.60;79.70;;;;;;6203884;28;20050;-79
2023/05/05 09:21:23;;;;;;;3.17;2.60;;;23.60;80.10;;;;;;6209181;28;20420;-80
2023/05/05 09:24:26;;;;;;;5.15;2.65;;;23.60;80.10;;;;;;6211409;28;20058;-79
2023/05/05 09:27:28;;;;;;;4.05;2.50;;;23.70;80.70;;;;;;6211603;28;20050;-79
2023/05/05 09:30:30;;;;;;;4.30;2.55;;;24.30;80.50;;;;;;6210016;28;20042;-80
2023/05/05 09:33:31;;;;;;;10.05;2.53;;;24.60;79.10;;;;;;6207572;28;20053;-79
2023/05/05 09:36:46;;;;;;;3.08;2.58;;;24.50;78.60;;;;;;6201541;28;20431;-79
2023/05/05 09:39:55;;;;;;;8.75;3.13;;;24.70;78.60;;;;;;6203746;28;20122;-79
2023/05/05 09:43:01;;;;;;;5.18;2.50;;;24.80;77.70;;;;;;6202046;28;20053;-79
2023/05/05 09:46:07;;;;;;;3.58;2.05;;;25.00;76.50;;;;;;6207007;28;20117;-79
2023/05/05 09:49:14;;;;;;;4.53;2.45;;;25.20;75.80;;;;;;6206080;28;20177;-79
2023/05/05 09:52:16;;;;;;;5.65;2.75;;;25.00;75.30;;;;;;6206544;28;20530;-79
2023/05/05 09:55:19;;;;;;;3.80;2.13;;;25.00;75.60;;;;;;6204129;28;20054;-79
2023/05/05 09:58:23;;;;;;;4.18;2.75;;;24.90;75.40;;;;;;6199817;28;20051;-79
2023/05/05 10:01:25;;;;;;;7.22;2.35;;;24.90;75.60;;;;;;6204224;28;20056;-79
2023/05/05 10:04:28;;;;;;;4.38;2.10;;;24.90;75.50;;;;;;6202643;28;20058;-79
2023/05/05 10:07:30;;;;;;;3.97;2.63;;;25.00;75.40;;;;;;6212831;28;20080;-79
2023/05/05 10:10:33;;;;;;;3.95;2.05;;;24.90;75.20;;;;;;6210242;28;20046;-79
2023/05/05 10:13:37;;;;;;;2.28;2.08;;;24.80;75.10;;;;;;6211101;28;20042;-80
2023/05/05 10:16:45;;;;;;;8.02;1.98;;;24.80;74.70;;;;;;6211216;28;20050;-80
2023/05/05 10:19:48;;;;;;;7.15;3.08;;;24.80;74.20;;;;;;6208731;28;20049;-79
2023/05/05 10:22:52;;;;;;;4.10;2.10;;;24.70;74.20;;;;;;6209970;28;20058;-80
2023/05/05 10:26:01;;;;;;;3.90;2.17;;;24.70;74.30;;;;;;6212117;28;20085;-80
2023/05/05 10:29:07;;;;;;;4.07;2.15;;;24.90;74.20;;;;;;6204893;28;20093;-82
2023/05/05 10:32:17;;;;;;;5.65;3.45;;;25.10;74.10;;;;;;6195500;28;20500;-81
2023/05/05 10:35:22;;;;;;;3.33;1.90;;;25.50;73.60;;;;;;6193329;28;20054;-81
2023/05/05 10:38:25;;;;;;;3.20;1.65;;;26.00;72.20;;;;;;6191082;28;20054;-80
2023/05/05 10:41:29;;;;;;;3.75;1.35;;;26.30;71.50;;;;;;6196766;28;20389;-80
2023/05/05 10:44:32;;;;;;;2.80;1.77;;;26.30;71.00;;;;;;6208702;28;20128;-81
2023/05/05 10:47:34;;;;;;;2.35;1.98;;;26.40;70.60;;;;;;6214644;28;20054;-81
2023/05/05 10:50:42;;;;;;;5.32;1.80;;;26.60;70.20;;;;;;6213814;28;20050;-80
2023/05/05 10:53:52;;;;;;;3.25;1.83;;;26.60;69.60;;;;;;6219137;23;20389;-79
2023/05/05 10:56:56;;;;;;;9.95;2.35;;;26.60;68.90;;;;;;6210890;28;20034;-79
2023/05/05 10:59:58;;;;;;;3.53;1.45;;;26.10;68.70;;;;;;6211199;28;20568;-79
2023/05/05 11:03:27;;;;;;;3.25;1.63;;;26.00;68.90;;;;;;6207407;28;20050;-79
2023/05/05 11:06:31;;;;;;;3.20;1.88;;;26.10;68.60;;;;;;6209060;28;20046;-80
2023/05/05 11:09:37;;;;;;;3.50;2.00;;;26.30;68.70;;;;;;6210500;28;20080;-79
2023/05/05 11:13:20;;;;;;;2.60;2.40;;;26.50;68.60;;;;;;6208984;28;20449;-79
2023/05/05 11:16:49;;;;;;;6.05;1.85;;;26.70;68.40;;;;;;6207149;28;20058;-79
2023/05/05 11:19:52;;;;;;;2.70;1.75;;;27.00;67.30;;;;;;6184142;28;20416;-79
2023/05/05 11:23:21;;;;;;;7.10;2.92;;;27.40;67.00;;;;;;6208700;28;20042;-78
2023/05/05 11:26:50;;;;;;;6.47;1.80;;;27.70;65.80;;;;;;6207924;28;20515;-79
2023/05/05 11:30:08;;;;;;;1.77;1.55;;;28.10;65.40;;;;;;6205581;28;20042;-79
2023/05/05 11:33:25;;;;;;;5.32;2.50;;;28.60;64.10;;;;;;6205987;28;20050;-77
2023/05/05 11:36:39;;;;;;;2.35;1.65;;;28.90;63.30;;;;;;6201827;28;20073;-76
2023/05/05 11:39:51;;;;;;;4.97;1.40;;;29.30;62.50;;;;;;6209045;28;20089;-80
2023/05/05 11:43:04;;;;;;;4.95;1.92;;;29.70;61.00;;;;;;6201298;28;20501;-79
2023/05/05 11:46:14;;;;;;;3.17;1.45;;;29.40;60.80;;;;;;6211068;28;20052;-79
2023/05/05 11:49:26;;;;;;;8.10;1.88;;;29.50;60.10;;;;;;6204892;28;20065;-78
2023/05/05 11:52:28;;;;;;;2.58;1.40;;;29.40;59.40;;;;;;6207467;28;20046;-78
2023/05/05 11:55:29;;;;;;;1.85;1.38;;;29.50;59.40;;;;;;6207317;28;20065;-80
2023/05/05 11:58:31;;;;;;;1.98;1.63;;;29.60;58.80;;;;;;6206189;28;20046;-78
2023/05/05 12:01:34;;;;;;;2.40;1.05;;;29.40;58.20;;;;;;6201686;28;20045;-78
2023/05/05 12:04:39;;;;;;;3.13;2.17;;;29.20;57.60;;;;;;6210281;28;20500;-79
2023/05/05 12:07:41;;;;;;;3.95;1.83;;;29.00;57.80;;;;;;6205260;28;20069;-78
2023/05/05 12:10:43;;;;;;;7.30;1.55;;;28.60;58.60;;;;;;6206457;28;20053;-79
2023/05/05 12:13:45;;;;;;;7.25;2.45;;;28.60;58.60;;;;;;6212192;28;20038;-78
2023/05/05 12:16:55;;;;;;;3.20;1.63;;;28.60;58.90;;;;;;6206314;28;20121;-79
2023/05/05 12:19:57;;;;;;;3.72;1.40;;;28.80;58.30;;;;;;6204479;28;20061;-78
2023/05/05 12:23:03;;;;;;;4.75;1.10;;;28.80;58.80;;;;;;6204379;28;20046;-78
2023/05/05 12:26:06;;;;;;;1.20;1.10;;;28.60;58.40;;;;;;6204754;28;20046;-78
2023/05/05 12:29:08;;;;;;;3.25;1.70;;;28.20;57.90;;;;;;6201362;28;20045;-79
2023/05/05 12:32:23;;;;;;;6.50;1.67;;;28.10;57.80;;;;;;6205197;28;20565;-78
2023/05/05 12:35:25;;;;;;;4.32;1.60;;;28.40;58.10;;;;;;6204349;28;20052;-78
2023/05/05 12:38:27;;;;;;;6.70;1.45;;;29.20;58.00;;;;;;6200892;28;20046;-78
2023/05/05 12:41:30;;;;;;;2.13;1.67;;;29.40;56.60;;;;;;6205458;28;20121;-77
2023/05/05 12:44:35;;;;;;;1.92;1.17;;;29.00;56.60;;;;;;6204424;28;20050;-77
2023/05/05 12:47:42;;;;;;;2.17;1.80;;;28.80;56.50;;;;;;6201574;28;20049;-78
2023/05/05 12:50:44;;;;;;;15.57;1.45;;;28.70;56.40;;;;;;6203793;28;20034;-78
2023/05/05 12:53:47;;;;;;;6.72;1.95;;;28.70;56.40;;;;;;6202151;28;20046;-78
2023/05/05 12:56:49;;;;;;;1.42;1.30;;;29.20;55.70;;;;;;6200401;28;20112;-78
2023/05/05 12:59:53;;;;;;;2.15;0.88;;;29.70;54.80;;;;;;6202759;28;20062;-78
2023/05/05 13:02:56;;;;;;;2.78;1.25;;;30.10;54.00;;;;;;6203669;28;20402;-78
2023/05/05 13:05:58;;;;;;;4.78;1.25;;;30.10;52.90;;;;;;6200595;28;20397;-78
2023/05/05 13:09:00;;;;;;;2.97;1.27;;;30.00;52.90;;;;;;6200711;28;20045;-78
2023/05/05 13:12:03;;;;;;;3.55;0.90;;;30.00;52.80;;;;;;6202958;28;21480;-78
2023/05/05 13:15:05;;;;;;;3.72;1.17;;;29.90;52.30;;;;;;6198217;28;20488;-78
2023/05/05 13:18:08;;;;;;;3.10;1.75;;;29.90;51.70;;;;;;6203425;28;20390;-77
2023/05/05 13:21:10;;;;;;;1.65;1.00;;;29.90;51.80;;;;;;6197531;28;20070;-78
2023/05/05 13:24:12;;;;;;;1.77;1.08;;;29.90;51.60;;;;;;6203340;28;20050;-78
2023/05/05 13:27:17;;;;;;;4.47;1.00;;;29.90;51.10;;;;;;6200883;28;20204;-78
2023/05/05 13:30:19;;;;;;;3.22;1.30;;;29.90;50.90;;;;;;6200088;28;20093;-78
2023/05/05 13:33:25;;;;;;;1.65;1.33;;;29.80;51.10;;;;;;6207993;28;20200;-78
2023/05/05 13:36:27;;;;;;;2.85;1.60;;;29.60;51.50;;;;;;6204179;28;20428;-78
2023/05/05 13:39:30;;;;;;;3.47;1.08;;;29.40;51.70;;;;;;6205180;28;20065;-78
2023/05/05 13:42:32;;;;;;;2.30;1.75;;;29.40;51.80;;;;;;6207380;28;20057;-79
2023/05/05 13:45:40;;;;;;;2.35;1.60;;;29.30;52.20;;;;;;6208817;28;20073;-77
2023/05/05 13:48:43;;;;;;;;;;;29.20;52.40;;;;;;6209293;28;20058;-79
2023/05/05 13:51:45;;;;;;;2.88;1.48;;;29.10;52.50;;;;;;6208434;28;19921;-78
2023/05/05 13:54:48;;;;;;;3.97;1.73;;;29.00;52.40;;;;;;6203705;28;20053;-78
2023/05/05 13:57:49;;;;;;;1.42;1.10;;;29.10;52.30;;;;;;6207087;28;20054;-78
2023/05/05 14:00:51;;;;;;;1.70;1.35;;;29.20;51.60;;;;;;6207147;28;20046;-77
2023/05/05 14:03:54;;;;;;;1.50;0.95;;;29.30;50.90;;;;;;6207670;28;20060;-78
2023/05/05 14:06:56;;;;;;;4.97;1.25;;;29.50;50.30;;;;;;6211926;28;20050;-78
2023/05/05 14:09:59;;;;;;;1.92;1.38;;;30.00;50.00;;;;;;6211362;28;20528;-77
2023/05/05 14:13:00;;;;;;;5.20;1.45;;;30.40;49.40;;;;;;6212110;28;20073;-78
2023/05/05 14:16:02;;;;;;;4.50;1.30;;;30.50;49.40;;;;;;6212712;28;20063;-78
2023/05/05 14:19:05;;;;;;;2.67;1.20;;;30.60;48.70;;;;;;6202985;28;20045;-78
2023/05/05 14:22:07;;;;;;;1.73;0.80;;;30.50;48.80;;;;;;6207879;28;20483;-77
2023/05/05 14:25:08;;;;;;;2.67;0.95;;;30.30;49.70;;;;;;6206425;28;20058;-78
2023/05/05 14:28:10;;;;;;;1.33;0.77;;;30.00;49.20;;;;;;6198730;28;20050;-78
2023/05/05 14:31:12;;;;;;;3.72;1.15;;;29.70;49.40;;;;;;6203753;28;20408;-77
2023/05/05 14:34:15;;;;;;;3.53;2.00;;;29.40;49.60;;;;;;6197788;28;20061;-75
2023/05/05 14:37:17;;;;;;;52.17;42.30;;;28.90;49.50;;;;;;6199620;28;20042;-77
2023/05/05 14:40:18;;;;;;;4.05;3.75;;;28.60;49.70;;;;;;6199898;28;20496;-78
2023/05/05 14:43:20;;;;;;;5.07;1.77;;;28.30;50.20;;;;;;6204391;28;20423;-78
2023/05/05 14:46:22;;;;;;;6.65;1.58;;;28.00;50.70;;;;;;6207483;28;20050;-79
2023/05/05 14:49:25;;;;;;;4.45;1.60;;;27.70;51.20;;;;;;6202924;28;20049;-78
2023/05/05 14:52:27;;;;;;;3.03;1.63;;;27.50;51.50;;;;;;6209229;28;20299;-79
2023/05/05 14:55:31;;;;;;;2.28;1.73;;;27.10;52.10;;;;;;6200804;28;20085;-78
2023/05/05 14:58:41;;;;;;;5.03;3.30;;;26.80;52.70;;;;;;6203668;28;20136;-78
2023/05/05 15:01:52;;;;;;;4.22;1.50;;;26.60;53.10;;;;;;6207927;28;20197;-79
2023/05/05 15:04:57;;;;;;;2.90;1.70;;;26.40;53.20;;;;;;6201028;28;20061;-79
2023/05/05 15:08:01;;;;;;;7.38;1.90;;;26.10;54.00;;;;;;6211761;28;20054;-78
2023/05/05 15:11:06;;;;;;;1.88;1.58;;;25.80;56.30;;;;;;6206383;28;20057;-80
2023/05/05 15:14:08;;;;;;;2.88;1.45;;;25.50;59.00;;;;;;6208911;28;20050;-79
2023/05/05 15:17:10;;;;;;;5.25;2.55;;;25.20;60.70;;;;;;6196483;28;20062;-79
2023/05/05 15:20:13;;;;;;;4.43;2.28;;;24.90;63.10;;;;;;6207802;28;20046;-77
2023/05/05 15:23:17;;;;;;;5.97;2.28;;;24.50;65.90;;;;;;6204749;28;20058;-77
2023/05/05 15:26:19;;;;;;;8.50;3.83;;;24.00;67.70;;;;;;6205360;28;20050;-78
2023/05/05 15:29:24;;;;;;;5.97;3.00;;;23.40;69.30;;;;;;6202284;28;20068;-81
2023/05/05 15:32:26;;;;;;;5.85;3.75;;;22.50;71.60;;;;;;6193947;28;20054;-78
2023/05/05 15:35:29;;;;;;;4.20;3.45;;;21.60;75.70;;;;;;6201546;28;20054;-78
2023/05/05 15:38:30;;;;;;;5.80;4.38;;;20.10;82.90;;;;;;6204124;28;20389;-77
2023/05/05 15:41:36;;;;;;;8.65;5.43;;;19.00;90.30;;;;;;6206524;28;20519;-78
2023/05/05 15:44:38;;;;;;;12.98;6.60;;;18.20;93.40;;;;;;6202410;28;20068;-78
2023/05/05 15:47:40;;;;;;;6.55;4.75;;;17.70;95.70;;;;;;6201257;28;20053;-78
2023/05/05 15:50:43;;;;;;;5.82;4.60;;;17.60;98.10;;;;;;6203745;28;20052;-78
2023/05/05 15:53:45;;;;;;;7.50;5.88;;;17.40;99.90;;;;;;6197185;28;20055;-78
2023/05/05 15:56:47;;;;;;;9.38;6.97;;;17.20;99.90;;;;;;6205051;28;20638;-77